Princess, Kentucky
Current Conditions -  °F | °C
As of 12:15 AM on Saturday 20 Dec 2014 (Local Time) from KDWU Reporting Station
Overcast Overcast  
Wind Chill: 25°   Ceiling: 2700
Heat Index: 30°   Visibility: 10mi
Dew Point: 19°   Wind: 5mph
Humidity: 64%   Direction: 70°ENE
Pressure: 30.25"   Gusts: NA
Location:  38.4744°N, 82.6532°W
Report Text: KDWU 200515Z AUTO 07004KT 10SM OVC027 M01/M07 A3025 RMK AO1
Loading
Personal Weather Stations






























Interactive Weather Map New forecast layout! Learn more

10-Day Weather Forecast

Advertisements
Track Severe Weather on mobile